アスタナ の空港の天気 - METARとTAF

アスタナ国際空港 ( UACC / TSE ) - カザフスタン アスタナ
飛行場実況気象(Metar)
観測時間01/20 23:30 +06 (01/20 17:30 UTC)
風向・風速南南西 8m/s
視程10km以上
天気現象
少しの雲 雲底高度 610m
全天を覆う雲 雲底高度 2740m
気温-11℃
湿度79%
気圧1016hPa
METARUACC 201730Z 21008MPS 9999 FEW020 OVC090 M11/M14 Q1016 R22/4/0355 NOSIG RMK QFE731/0974
過去の天気等 Google飛行場航空写真 Wunderground天気予報

過去48時間のMETAR

飛行場予報(TAF)
発表時間: 1/20 23:00 +06 (1/20 17:00 UTC)
予報対象時間: 21日0時 +06 ~ 22日0時 +06
風向・風速南南西 7m/s
視程10km以上
全天の4割程度の雲 雲底高度 300m
全天の8割程度の雲 雲底高度 610m
21日0時 +06 ~ 21日3時 +06 に一時的に
風向・風速南西 10m/s
視程5,000m
天気現象弱い雪 低い地吹雪
21日3時 +06 ~ 21日9時 +06 に一時的に
視程3,000m
天気現象しゅう雪 もや
全天の4割程度の雲 雲底高度 210m
全天の8割程度の積乱雲 雲底高度 460m
21日9時 +06 ~ 21日11時 +06 に徐々に
風向・風速南西 9m/s 瞬間風速 14m/s
視程6,000m
天気現象弱い雪 低い地吹雪
全天の4割程度の雲 雲底高度 300m
全天の8割程度の雲 雲底高度 610m
21日11時 +06 ~ 21日24時 +06 に一時的に
風向・風速南西 11m/s 瞬間風速 16m/s
視程2,000m
天気現象しゅう雪 高い地吹雪
全天の8割程度の雲 雲底高度 210m
全天の8割程度の積乱雲 雲底高度 610m
TAF UACC 201700Z 2018/2118 21007MPS 9999 SCT010 BKN020 TXM11/2109Z TNM13/2102Z
TEMPO 2018/2021 22010MPS 5000 -SN DRSN
TEMPO 2021/2103 3000 SHSN BR SCT007 BKN015CB
BECMG 2103/2105 23009G14MPS 6000 -SN DRSN SCT010 BKN020
TEMPO 2105/2118 23011G16MPS 2000 SHSN BLSN BKN007 BKN020CB